createdAt,value
2023-01-12T00:01:38.278Z,38.55
2023-01-12T00:04:23.756Z,31.83
2023-01-12T00:07:11.709Z,35.83
2023-01-12T00:09:59.975Z,45.67
2023-01-12T00:12:45.485Z,37.30
2023-01-12T00:15:54.494Z,44.85
2023-01-12T00:18:46.142Z,49.08
2023-01-12T00:21:35.736Z,51.42
2023-01-12T00:24:21.985Z,78.13
2023-01-12T00:27:10.113Z,65.65
2023-01-12T00:29:55.338Z,55.78
2023-01-12T00:32:40.901Z,58.17
2023-01-12T00:35:26.232Z,69.40
2023-01-12T00:38:16.459Z,61.72
2023-01-12T00:41:33.180Z,56.15
2023-01-12T00:44:36.851Z,71.97
2023-01-12T00:47:22.249Z,75.10
2023-01-12T00:50:12.740Z,81.07
2023-01-12T00:52:58.338Z,73.18
2023-01-12T00:55:46.149Z,75.82
2023-01-12T00:58:37.054Z,85.65
2023-01-12T01:01:23.025Z,82.53
2023-01-12T01:04:08.836Z,96.25
2023-01-12T01:06:54.149Z,90.03
2023-01-12T01:09:44.325Z,87.40
2023-01-12T01:12:30.277Z,110.38
2023-01-12T01:15:15.739Z,99.75
2023-01-12T01:18:02.297Z,98.72
2023-01-12T01:20:48.005Z,91.72
2023-01-12T01:23:35.751Z,87.38
2023-01-12T01:26:23.164Z,75.00
2023-01-12T01:29:09.263Z,77.07
2023-01-12T01:31:57.778Z,76.15
2023-01-12T01:34:46.358Z,75.00
2023-01-12T01:37:34.226Z,70.38
2023-01-12T01:40:19.805Z,60.22
2023-01-12T01:43:05.472Z,44.55
2023-01-12T01:46:03.516Z,52.03
2023-01-12T01:48:52.186Z,59.15
2023-01-12T01:51:41.362Z,46.75
2023-01-12T01:54:33.624Z,31.70
2023-01-12T01:57:20.641Z,34.67
2023-01-12T02:00:07.497Z,42.25
2023-01-12T02:02:54.298Z,44.50
2023-01-12T02:05:42.848Z,39.33
2023-01-12T02:08:34.645Z,33.58
2023-01-12T02:11:40.125Z,29.63
2023-01-12T02:14:44.021Z,26.17
2023-01-12T02:17:48.643Z,39.20
2023-01-12T02:21:03.425Z,24.80
2023-01-12T02:24:07.813Z,32.30
2023-01-12T02:26:55.919Z,30.15
2023-01-12T02:30:05.607Z,33.63
2023-01-12T02:33:08.879Z,36.88
2023-01-12T02:36:23.308Z,35.35
2023-01-12T02:39:32.446Z,38.67
2023-01-12T02:42:42.755Z,47.47
2023-01-12T02:45:50.783Z,36.80
2023-01-12T02:48:54.694Z,48.33
2023-01-12T02:51:54.742Z,30.52
2023-01-12T02:54:48.026Z,38.75
2023-01-12T02:57:40.354Z,37.00
2023-01-12T03:00:27.012Z,52.42
2023-01-12T03:03:13.002Z,47.60
2023-01-12T03:05:59.741Z,48.88
2023-01-12T03:08:47.681Z,46.13
2023-01-12T03:11:36.020Z,42.25
2023-01-12T03:14:22.931Z,49.85
2023-01-12T03:17:20.852Z,38.05
2023-01-12T03:20:28.988Z,46.17
2023-01-12T03:23:32.887Z,28.98
2023-01-12T03:26:23.313Z,27.13
2023-01-12T03:29:37.888Z,30.38
2023-01-12T03:32:25.790Z,32.92
2023-01-12T03:35:12.622Z,37.47
2023-01-12T03:38:05.932Z,25.60
2023-01-12T03:41:01.560Z,35.47
2023-01-12T03:43:57.516Z,22.88
2023-01-12T03:46:52.169Z,19.40
2023-01-12T03:50:18.082Z,20.95
2023-01-12T03:53:06.796Z,27.90
2023-01-12T03:55:58.553Z,19.75
2023-01-12T03:58:44.737Z,17.83
2023-01-12T04:01:31.210Z,23.50
2023-01-12T04:04:16.796Z,24.90
2023-01-12T04:07:02.349Z,20.65
2023-01-12T04:09:47.880Z,20.50
2023-01-12T04:12:33.160Z,21.77
2023-01-12T04:15:21.714Z,14.52
2023-01-12T04:18:08.213Z,22.80
2023-01-12T04:20:53.814Z,43.58
2023-01-12T04:23:41.302Z,11.48
2023-01-12T04:26:28.055Z,23.05
2023-01-12T04:29:13.557Z,28.63
2023-01-12T04:32:08.352Z,13.55
2023-01-12T04:34:53.754Z,19.23
2023-01-12T04:37:40.250Z,21.50
2023-01-12T04:40:26.113Z,20.00
2023-01-12T04:43:13.466Z,13.20
2023-01-12T04:46:01.733Z,22.30
2023-01-12T04:48:49.717Z,21.63
2023-01-12T04:51:37.556Z,9.43
2023-01-12T04:54:25.788Z,13.60
2023-01-12T04:57:12.303Z,16.63
2023-01-12T05:00:05.480Z,13.70
2023-01-12T05:03:02.256Z,6.78
2023-01-12T05:05:50.145Z,24.42
2023-01-12T05:08:54.054Z,13.73
2023-01-12T05:11:39.736Z,13.68
2023-01-12T05:14:26.281Z,14.13
2023-01-12T05:17:11.707Z,8.55
2023-01-12T05:19:58.534Z,14.40
2023-01-12T05:22:45.273Z,14.35
2023-01-12T05:25:33.724Z,14.57
2023-01-12T05:28:19.347Z,12.23
2023-01-12T05:31:09.180Z,8.10
2023-01-12T05:33:55.207Z,18.25
2023-01-12T05:36:40.722Z,16.02
2023-01-12T05:39:26.146Z,7.10
2023-01-12T05:42:30.028Z,13.05
2023-01-12T05:45:19.359Z,6.53
2023-01-12T05:48:05.317Z,13.60
2023-01-12T05:50:50.994Z,6.40
2023-01-12T05:53:36.623Z,12.23
2023-01-12T05:56:27.469Z,7.93
2023-01-12T05:59:15.263Z,13.68
2023-01-12T06:02:00.824Z,7.47
2023-01-12T06:04:46.417Z,9.98
2023-01-12T06:07:32.300Z,14.77
2023-01-12T06:10:18.116Z,17.45
2023-01-12T06:13:25.140Z,18.50
2023-01-12T06:16:10.559Z,20.13
2023-01-12T06:18:56.493Z,18.90
2023-01-12T06:21:41.986Z,17.80
2023-01-12T06:24:28.677Z,21.77
2023-01-12T06:27:13.928Z,23.90
2023-01-12T06:29:59.548Z,29.90
2023-01-12T06:32:44.772Z,26.67
2023-01-12T06:35:30.072Z,37.35
2023-01-12T06:38:20.492Z,30.38
2023-01-12T06:41:45.371Z,27.65
2023-01-12T06:44:31.143Z,26.27
2023-01-12T06:47:16.500Z,36.05
2023-01-12T06:50:01.918Z,24.88
2023-01-12T06:52:47.044Z,41.67
2023-01-12T06:55:33.089Z,37.95
2023-01-12T06:58:19.089Z,33.10
2023-01-12T07:01:05.055Z,41.88
2023-01-12T07:03:50.780Z,33.42
2023-01-12T07:06:48.432Z,40.10
2023-01-12T07:09:36.922Z,35.45
2023-01-12T07:12:22.634Z,38.10
2023-01-12T07:15:08.952Z,36.25
2023-01-12T07:17:57.737Z,27.98
2023-01-12T07:20:46.030Z,40.10
2023-01-12T07:23:31.565Z,44.08
2023-01-12T07:26:17.546Z,41.03
2023-01-12T07:29:03.187Z,40.00
2023-01-12T07:31:55.477Z,40.60
2023-01-12T07:34:40.752Z,57.10
2023-01-12T07:37:26.286Z,32.03
2023-01-12T07:40:12.113Z,36.67
2023-01-12T07:43:02.005Z,55.17
2023-01-12T07:45:48.429Z,53.92
2023-01-12T07:48:35.146Z,40.90
2023-01-12T07:51:20.428Z,49.10
2023-01-12T07:54:06.349Z,54.80
2023-01-12T07:56:51.843Z,48.25
2023-01-12T07:59:40.864Z,56.88
2023-01-12T08:02:26.575Z,42.25
2023-01-12T08:05:14.776Z,40.10
2023-01-12T08:08:02.044Z,43.17
2023-01-12T08:10:50.545Z,46.47
2023-01-12T08:13:38.101Z,49.38
2023-01-12T08:16:32.146Z,49.47
2023-01-12T08:19:25.310Z,39.95
2023-01-12T08:22:16.012Z,51.50
2023-01-12T08:25:14.659Z,51.00
2023-01-12T08:28:04.106Z,51.88
2023-01-12T08:30:50.620Z,44.75
2023-01-12T08:33:40.019Z,60.63
2023-01-12T08:36:28.493Z,39.13
2023-01-12T08:39:15.182Z,53.70
2023-01-12T08:42:01.292Z,47.78
2023-01-12T08:44:46.691Z,55.55
2023-01-12T08:47:32.422Z,59.47
2023-01-12T08:50:17.772Z,68.85
2023-01-12T08:53:02.945Z,37.00
2023-01-12T08:55:55.950Z,58.28
2023-01-12T08:58:43.095Z,61.17
2023-01-12T09:01:29.008Z,68.15
2023-01-12T09:04:14.859Z,48.55
2023-01-12T09:07:00.292Z,59.45
2023-01-12T09:09:46.123Z,72.18
2023-01-12T09:12:31.569Z,62.63
2023-01-12T09:15:17.283Z,63.55
2023-01-12T09:18:02.600Z,60.28
2023-01-12T09:20:48.266Z,63.13
2023-01-12T09:23:34.273Z,72.18
2023-01-12T09:26:25.971Z,63.22
2023-01-12T09:29:12.714Z,69.20
2023-01-12T09:31:58.376Z,70.57
2023-01-12T09:34:43.809Z,73.72
2023-01-12T09:37:29.908Z,73.82
2023-01-12T09:40:19.316Z,62.03
2023-01-12T09:43:22.960Z,64.32
2023-01-12T09:46:36.324Z,63.97
2023-01-12T09:49:27.184Z,76.30
2023-01-12T09:52:26.786Z,46.45
2023-01-12T09:55:28.163Z,51.35
2023-01-12T09:58:40.131Z,53.35
2023-01-12T10:01:29.538Z,64.22
2023-01-12T10:04:15.737Z,59.22
2023-01-12T10:07:01.860Z,50.47
2023-01-12T10:09:48.845Z,42.03
2023-01-12T10:12:50.820Z,54.63
2023-01-12T10:15:46.369Z,55.63
2023-01-12T10:18:41.382Z,57.83
2023-01-12T10:21:29.590Z,57.60
2023-01-12T10:24:14.848Z,56.00
2023-01-12T10:27:03.280Z,53.28
2023-01-12T10:29:48.735Z,46.78
2023-01-12T10:32:41.892Z,47.42
2023-01-12T10:35:32.469Z,45.33
2023-01-12T10:38:46.828Z,32.05
2023-01-12T10:41:37.772Z,56.17
2023-01-12T10:44:23.358Z,63.17
2023-01-12T10:47:11.365Z,48.63
2023-01-12T10:50:21.826Z,27.63
2023-01-12T10:53:15.792Z,39.88
2023-01-12T10:56:10.262Z,46.47
2023-01-12T10:59:20.034Z,31.90
2023-01-12T11:02:07.604Z,44.67
2023-01-12T11:04:57.016Z,42.95
2023-01-12T11:07:51.698Z,33.80
2023-01-12T11:10:37.708Z,35.92
2023-01-12T11:13:26.599Z,32.95
2023-01-12T11:16:25.103Z,54.85
2023-01-12T11:19:42.285Z,38.55
2023-01-12T11:22:34.141Z,42.05
2023-01-12T11:25:29.441Z,49.92
2023-01-12T11:28:29.352Z,36.38
2023-01-12T11:31:26.918Z,61.38
2023-01-12T11:34:23.653Z,36.35
2023-01-12T11:37:14.381Z,48.45
2023-01-12T11:40:37.735Z,38.42
2023-01-12T11:43:51.594Z,55.05
2023-01-12T11:46:40.568Z,49.63
2023-01-12T11:49:38.083Z,44.83
2023-01-12T11:52:26.568Z,39.28
2023-01-12T11:55:19.645Z,44.22
2023-01-12T11:58:35.170Z,41.65
2023-01-12T12:01:30.017Z,48.55
2023-01-12T12:04:24.888Z,35.13
2023-01-12T12:07:43.389Z,40.90
2023-01-12T12:10:44.000Z,47.95
2023-01-12T12:13:53.651Z,34.20
2023-01-12T12:17:15.812Z,35.15
2023-01-12T12:20:34.431Z,19.63
2023-01-12T12:23:30.596Z,30.08
2023-01-12T12:26:26.209Z,39.83
2023-01-12T12:29:33.288Z,25.10
2023-01-12T12:32:21.683Z,15.88
2023-01-12T12:35:41.297Z,18.88
2023-01-12T12:39:09.981Z,13.98
2023-01-12T12:42:33.077Z,14.25
2023-01-12T12:45:53.686Z,9.90
2023-01-12T12:48:41.991Z,10.63
2023-01-12T12:51:31.447Z,16.85
2023-01-12T12:54:24.922Z,9.82
2023-01-12T12:57:10.467Z,16.58
2023-01-12T13:00:02.254Z,15.90
2023-01-12T13:02:55.367Z,7.57
2023-01-12T13:05:43.167Z,8.50
2023-01-12T13:08:35.441Z,6.63
2023-01-12T13:11:42.342Z,2.40
2023-01-12T13:14:30.426Z,7.18
2023-01-12T13:17:19.025Z,12.18
2023-01-12T13:20:16.589Z,5.15
2023-01-12T13:23:49.447Z,8.55
2023-01-12T13:26:38.299Z,11.73
2023-01-12T13:29:29.557Z,7.75
2023-01-12T13:32:33.853Z,10.82
2023-01-12T13:35:29.469Z,8.85
2023-01-12T13:38:29.709Z,5.95
2023-01-12T13:41:15.057Z,1.98
2023-01-12T13:44:01.016Z,5.90
2023-01-12T13:46:49.989Z,2.28
2023-01-12T13:49:44.332Z,8.45
2023-01-12T13:52:34.303Z,4.95
2023-01-12T13:55:22.580Z,5.80
2023-01-12T13:58:17.708Z,10.73
2023-01-12T14:01:03.019Z,10.68
2023-01-12T14:04:10.280Z,9.30
2023-01-12T14:07:16.979Z,6.43
2023-01-12T14:10:27.740Z,5.75
2023-01-12T14:13:43.040Z,5.55
2023-01-12T14:17:04.927Z,4.05
2023-01-12T14:19:52.051Z,4.95
2023-01-12T14:22:37.978Z,5.80
2023-01-12T14:25:28.844Z,4.97
2023-01-12T14:28:22.549Z,4.13
2023-01-12T14:31:39.598Z,4.82
2023-01-12T14:34:32.865Z,2.85
2023-01-12T14:37:34.401Z,4.18
2023-01-12T14:40:30.583Z,8.13
2023-01-12T14:43:40.593Z,15.57
2023-01-12T14:46:31.374Z,7.85
2023-01-12T14:49:22.509Z,12.57
2023-01-12T14:52:16.967Z,5.95
2023-01-12T14:55:20.943Z,4.57
2023-01-12T14:58:07.349Z,9.02
2023-01-12T15:00:53.250Z,11.77
2023-01-12T15:03:43.858Z,8.90
2023-01-12T15:06:29.365Z,8.77
2023-01-12T15:09:51.027Z,5.68
2023-01-12T15:12:39.417Z,5.13
2023-01-12T15:15:48.998Z,6.97
2023-01-12T15:18:54.045Z,4.10
2023-01-12T15:22:00.555Z,6.20
2023-01-12T15:25:14.761Z,12.00
2023-01-12T15:28:00.584Z,7.55
2023-01-12T15:30:46.086Z,4.40
2023-01-12T15:33:32.174Z,8.63
2023-01-12T15:36:27.853Z,8.85
2023-01-12T15:39:14.433Z,7.00
2023-01-12T15:42:18.041Z,14.65
2023-01-12T15:45:03.715Z,7.32
2023-01-12T15:47:49.268Z,15.85
2023-01-12T15:50:38.061Z,10.85
2023-01-12T15:53:25.385Z,9.70
2023-01-12T15:56:12.898Z,9.50
2023-01-12T15:58:58.084Z,5.75
2023-01-12T16:01:47.650Z,3.08
2023-01-12T16:04:42.848Z,8.07
2023-01-12T16:07:29.036Z,14.15
2023-01-12T16:10:15.534Z,15.20
2023-01-12T16:13:02.008Z,5.28
2023-01-12T16:15:48.423Z,9.93
2023-01-12T16:18:34.301Z,2.92
2023-01-12T16:21:22.741Z,7.22
2023-01-12T16:24:09.486Z,7.53
2023-01-12T16:26:54.872Z,13.32
2023-01-12T16:29:40.376Z,5.60
2023-01-12T16:32:26.830Z,11.27
2023-01-12T16:35:15.573Z,6.22
2023-01-12T16:38:01.067Z,7.18
2023-01-12T16:40:51.289Z,5.28
2023-01-12T16:43:38.023Z,4.53
2023-01-12T16:46:23.509Z,5.82
2023-01-12T16:49:09.083Z,11.32
2023-01-12T16:51:55.372Z,7.97
2023-01-12T16:54:42.647Z,8.05
2023-01-12T16:57:28.084Z,5.70
2023-01-12T17:00:15.851Z,11.93
2023-01-12T17:03:02.648Z,11.80
2023-01-12T17:05:49.148Z,15.27
2023-01-12T17:08:34.909Z,19.75
2023-01-12T17:11:21.303Z,13.82
2023-01-12T17:14:27.609Z,13.75
2023-01-12T17:17:13.209Z,16.88
2023-01-12T17:19:58.421Z,8.88
2023-01-12T17:22:45.772Z,11.48
2023-01-12T17:25:33.797Z,10.60
2023-01-12T17:28:19.777Z,17.48
2023-01-12T17:31:14.570Z,11.48
2023-01-12T17:34:00.474Z,9.07
2023-01-12T17:36:46.269Z,12.88
2023-01-12T17:39:32.643Z,13.00
2023-01-12T17:42:43.280Z,14.88
2023-01-12T17:45:34.344Z,6.90
2023-01-12T17:48:20.085Z,14.63
2023-01-12T17:51:11.779Z,7.88
2023-01-12T17:53:58.870Z,10.10
2023-01-12T17:56:46.053Z,12.82
2023-01-12T17:59:31.846Z,9.23
2023-01-12T18:02:18.351Z,10.40
2023-01-12T18:05:06.699Z,9.57
2023-01-12T18:07:52.270Z,7.50
2023-01-12T18:10:38.257Z,10.05
2023-01-12T18:13:26.452Z,12.13
2023-01-12T18:16:13.783Z,10.70
2023-01-12T18:19:06.872Z,16.17
2023-01-12T18:21:52.530Z,13.18
2023-01-12T18:24:38.029Z,9.25
2023-01-12T18:27:26.796Z,13.18
2023-01-12T18:30:15.338Z,21.65
2023-01-12T18:33:00.991Z,14.05
2023-01-12T18:35:46.882Z,11.73
2023-01-12T18:38:44.714Z,19.02
2023-01-12T18:41:48.872Z,18.50
2023-01-12T18:44:35.739Z,15.18
2023-01-12T18:47:39.864Z,18.05
2023-01-12T18:50:43.412Z,15.02
2023-01-12T18:53:35.782Z,18.85
2023-01-12T18:56:21.826Z,20.80
2023-01-12T18:59:08.143Z,16.08
2023-01-12T19:01:53.815Z,21.67
2023-01-12T19:04:52.107Z,13.40
2023-01-12T19:07:52.137Z,15.93
2023-01-12T19:10:40.177Z,17.45
2023-01-12T19:13:43.912Z,15.55
2023-01-12T19:16:51.910Z,9.95
2023-01-12T19:19:37.890Z,11.02
2023-01-12T19:22:42.983Z,11.68
2023-01-12T19:25:47.718Z,12.90
2023-01-12T19:28:35.980Z,17.42
2023-01-12T19:31:21.703Z,11.20
2023-01-12T19:34:07.397Z,9.85
2023-01-12T19:36:52.913Z,8.18
2023-01-12T19:39:49.467Z,8.52
2023-01-12T19:42:56.419Z,15.80
2023-01-12T19:45:44.354Z,12.70
2023-01-12T19:48:35.867Z,13.40
2023-01-12T19:51:21.609Z,8.60
2023-01-12T19:54:07.096Z,9.80
2023-01-12T19:56:52.533Z,18.95
2023-01-12T19:59:38.075Z,28.48
2023-01-12T20:02:23.748Z,19.75
2023-01-12T20:05:13.217Z,21.52
2023-01-12T20:07:58.710Z,20.05
2023-01-12T20:10:56.187Z,32.55
2023-01-12T20:13:43.981Z,32.33
2023-01-12T20:16:29.951Z,34.50
2023-01-12T20:19:15.254Z,31.95
2023-01-12T20:22:01.438Z,69.82
2023-01-12T20:24:48.471Z,15.63
2023-01-12T20:27:35.601Z,37.22
2023-01-12T20:30:36.459Z,66.38
2023-01-12T20:33:24.584Z,11.38
2023-01-12T20:36:12.732Z,28.52
2023-01-12T20:38:58.975Z,20.45
2023-01-12T20:41:44.373Z,19.45
2023-01-12T20:44:29.883Z,28.88
2023-01-12T20:47:15.377Z,24.88
2023-01-12T20:50:02.081Z,17.40
2023-01-12T20:52:49.013Z,14.88
2023-01-12T20:55:35.313Z,13.82
2023-01-12T20:58:20.632Z,13.18
2023-01-12T21:01:18.870Z,10.05
2023-01-12T21:04:04.307Z,11.35
2023-01-12T21:06:49.711Z,9.80
2023-01-12T21:09:35.411Z,13.63
2023-01-12T21:12:20.821Z,19.17
2023-01-12T21:15:07.074Z,15.13
2023-01-12T21:17:54.025Z,12.43
2023-01-12T21:20:43.266Z,15.30
2023-01-12T21:23:29.473Z,21.05
2023-01-12T21:26:15.620Z,29.63
2023-01-12T21:29:01.808Z,21.98
2023-01-12T21:31:47.244Z,28.05
2023-01-12T21:34:32.663Z,29.35
2023-01-12T21:37:18.203Z,42.95
2023-01-12T21:40:06.755Z,26.80
2023-01-12T21:43:10.037Z,34.75
2023-01-12T21:45:57.321Z,25.92
2023-01-12T21:48:42.711Z,42.63
2023-01-12T21:51:28.404Z,42.92
2023-01-12T21:54:13.779Z,41.92
2023-01-12T21:56:59.585Z,53.05
2023-01-12T21:59:44.775Z,41.63
2023-01-12T22:02:31.323Z,54.95
2023-01-12T22:05:18.370Z,46.03
2023-01-12T22:08:03.718Z,49.40
2023-01-12T22:10:49.113Z,45.08
2023-01-12T22:13:35.812Z,51.47
2023-01-12T22:16:21.634Z,35.67
2023-01-12T22:19:07.071Z,43.10
2023-01-12T22:21:52.742Z,39.60
2023-01-12T22:24:38.482Z,40.30
2023-01-12T22:27:27.289Z,37.60
2023-01-12T22:30:22.158Z,48.88
2023-01-12T22:33:07.533Z,58.50
2023-01-12T22:35:53.052Z,56.47
2023-01-12T22:38:38.751Z,64.47
2023-01-12T22:41:24.879Z,63.25
2023-01-12T22:44:15.094Z,51.63
2023-01-12T22:47:00.511Z,53.70
2023-01-12T22:49:49.547Z,66.97
2023-01-12T22:52:35.028Z,56.10
2023-01-12T22:55:22.054Z,58.72
2023-01-12T22:58:08.135Z,53.67
2023-01-12T23:00:53.948Z,54.97
2023-01-12T23:03:41.157Z,41.67
2023-01-12T23:06:27.658Z,41.33
2023-01-12T23:09:12.960Z,42.40
2023-01-12T23:11:58.538Z,39.80
2023-01-12T23:14:46.270Z,41.63
2023-01-12T23:17:32.876Z,32.00
2023-01-12T23:20:18.588Z,53.25
2023-01-12T23:23:05.175Z,43.38
2023-01-12T23:25:51.725Z,36.50
2023-01-12T23:28:40.985Z,32.08
2023-01-12T23:31:31.405Z,42.85
2023-01-12T23:34:20.967Z,37.20
2023-01-12T23:37:06.368Z,32.22
2023-01-12T23:39:52.214Z,33.95
2023-01-12T23:42:37.648Z,53.60
2023-01-12T23:45:26.092Z,34.05
2023-01-12T23:48:11.501Z,51.47
2023-01-12T23:51:00.968Z,38.85
2023-01-12T23:53:47.273Z,44.38
2023-01-12T23:56:34.527Z,47.88
2023-01-12T23:59:22.900Z,40.88
